createdAt,value
2022-12-27T05:00:34.836Z,0.00
2022-12-27T05:01:34.841Z,0.00
2022-12-27T05:02:34.948Z,0.00
2022-12-27T05:03:34.763Z,0.00
2022-12-27T05:04:34.745Z,0.00
2022-12-27T05:05:34.706Z,0.00
2022-12-27T05:06:34.691Z,0.00
2022-12-27T05:07:34.721Z,0.00
2022-12-27T05:08:34.669Z,0.00
2022-12-27T05:09:34.684Z,0.00
2022-12-27T05:10:34.669Z,0.00
2022-12-27T05:11:39.694Z,0.00
2022-12-27T05:12:34.634Z,0.00
2022-12-27T05:13:34.615Z,0.00
2022-12-27T05:14:34.603Z,0.00
2022-12-27T05:15:34.599Z,0.00
2022-12-27T05:16:34.681Z,0.00
2022-12-27T05:17:34.566Z,0.00
2022-12-27T05:18:34.564Z,0.00
2022-12-27T05:19:34.543Z,0.00
2022-12-27T05:20:34.531Z,0.00
2022-12-27T05:21:34.551Z,0.00
2022-12-27T05:22:40.528Z,0.00
2022-12-27T05:23:34.530Z,0.00
2022-12-27T05:24:34.493Z,0.00
2022-12-27T05:25:34.483Z,0.00
2022-12-27T05:26:34.464Z,0.00
2022-12-27T05:27:34.470Z,0.00
2022-12-27T05:28:34.471Z,0.00
2022-12-27T05:29:34.430Z,0.00
2022-12-27T05:30:34.431Z,0.00
2022-12-27T05:31:34.553Z,0.00
2022-12-27T05:32:34.426Z,0.00
2022-12-27T05:33:39.420Z,0.00
2022-12-27T05:34:34.380Z,0.00
2022-12-27T05:35:34.408Z,0.00
2022-12-27T05:36:34.356Z,0.00
2022-12-27T05:37:34.346Z,0.00
2022-12-27T05:38:34.343Z,0.00
2022-12-27T05:39:34.337Z,0.00
2022-12-27T05:40:34.315Z,0.00
2022-12-27T05:41:34.302Z,0.00
2022-12-27T05:42:34.295Z,0.00
2022-12-27T05:43:34.294Z,0.00
2022-12-27T05:44:39.288Z,0.00
2022-12-27T05:45:34.252Z,0.00
2022-12-27T05:46:34.308Z,0.00
2022-12-27T05:47:34.233Z,0.00
2022-12-27T05:48:34.254Z,0.00
2022-12-27T05:49:34.228Z,0.00
2022-12-27T05:50:34.225Z,0.00
2022-12-27T05:51:34.187Z,0.00
2022-12-27T05:52:40.609Z,0.00
2022-12-27T05:53:35.164Z,0.00
2022-12-27T05:54:34.170Z,0.00
2022-12-27T05:55:39.169Z,0.00
2022-12-27T05:56:34.133Z,0.00
2022-12-27T05:57:34.163Z,0.00
2022-12-27T05:58:34.115Z,0.00
2022-12-27T05:59:34.115Z,0.00
2022-12-27T06:00:34.091Z,0.00
2022-12-27T06:01:34.219Z,0.00
2022-12-27T06:02:34.298Z,0.00
2022-12-27T06:03:34.131Z,0.00
2022-12-27T06:04:34.136Z,0.00
2022-12-27T06:05:34.036Z,0.00
2022-12-27T06:06:39.046Z,0.00
2022-12-27T06:07:34.017Z,0.00
2022-12-27T06:08:34.003Z,0.00
2022-12-27T06:09:33.999Z,0.00
2022-12-27T06:10:33.987Z,0.00
2022-12-27T06:11:33.968Z,0.00
2022-12-27T06:12:33.967Z,0.00
2022-12-27T06:13:33.971Z,0.00
2022-12-27T06:14:33.947Z,0.00
2022-12-27T06:15:33.921Z,0.00
2022-12-27T06:16:33.941Z,0.00
2022-12-27T06:17:38.923Z,0.00
2022-12-27T06:18:33.913Z,0.00
2022-12-27T06:19:33.896Z,0.00
2022-12-27T06:20:33.961Z,0.00
2022-12-27T06:21:33.854Z,0.00
2022-12-27T06:22:33.845Z,0.00
2022-12-27T06:23:33.832Z,0.00
2022-12-27T06:24:33.839Z,0.00
2022-12-27T06:25:33.812Z,0.00
2022-12-27T06:26:33.800Z,0.00
2022-12-27T06:27:33.791Z,0.00
2022-12-27T06:28:39.798Z,0.00
2022-12-27T06:29:33.766Z,0.00
2022-12-27T06:30:36.298Z,0.00
2022-12-27T06:31:33.824Z,0.00
2022-12-27T06:32:33.735Z,0.00
2022-12-27T06:33:33.738Z,0.00
2022-12-27T06:34:33.714Z,0.00
2022-12-27T06:35:33.718Z,0.00
2022-12-27T06:36:33.729Z,0.00
2022-12-27T06:37:33.678Z,0.00
2022-12-27T06:38:33.673Z,0.00
2022-12-27T06:39:38.678Z,0.00
2022-12-27T06:40:33.653Z,0.00
2022-12-27T06:41:33.637Z,0.00
2022-12-27T06:42:33.636Z,0.00
2022-12-27T06:43:33.624Z,0.00
2022-12-27T06:44:33.601Z,0.00
2022-12-27T06:45:34.640Z,0.00
2022-12-27T06:46:33.579Z,0.00
2022-12-27T06:47:33.572Z,0.00
2022-12-27T06:48:33.555Z,0.00
2022-12-27T06:49:33.545Z,0.00
2022-12-27T06:50:38.577Z,0.00
2022-12-27T06:51:33.522Z,0.00
2022-12-27T06:52:33.537Z,0.00
2022-12-27T06:53:33.506Z,0.00
2022-12-27T06:54:33.492Z,0.00
2022-12-27T06:55:33.488Z,0.00
2022-12-27T06:56:33.478Z,0.00
2022-12-27T06:57:33.457Z,0.00
2022-12-27T06:58:33.447Z,0.00
2022-12-27T06:59:33.443Z,0.00
2022-12-27T07:00:33.428Z,0.00
2022-12-27T07:01:38.523Z,0.00
2022-12-27T07:02:33.654Z,0.00
2022-12-27T07:03:33.389Z,0.00
2022-12-27T07:04:33.384Z,0.00
2022-12-27T07:05:33.380Z,0.00
2022-12-27T07:06:33.373Z,0.00
2022-12-27T07:07:33.350Z,0.00
2022-12-27T07:08:33.358Z,0.00
2022-12-27T07:09:33.330Z,0.00
2022-12-27T07:10:33.317Z,0.00
2022-12-27T07:11:33.321Z,0.00
2022-12-27T07:12:38.316Z,0.00
2022-12-27T07:13:33.279Z,0.00
2022-12-27T07:14:33.272Z,0.00
2022-12-27T07:15:33.257Z,0.00
2022-12-27T07:16:33.284Z,0.00
2022-12-27T07:17:33.237Z,0.00
2022-12-27T07:18:34.228Z,5.62
2022-12-27T07:19:33.235Z,5.62
2022-12-27T07:20:33.206Z,5.62
2022-12-27T07:21:33.203Z,5.62
2022-12-27T07:22:33.192Z,5.62
2022-12-27T07:23:38.210Z,5.62
2022-12-27T07:24:33.215Z,5.62
2022-12-27T07:25:33.145Z,5.62
2022-12-27T07:26:33.154Z,5.62
2022-12-27T07:27:34.124Z,5.62
2022-12-27T07:28:33.284Z,5.62
2022-12-27T07:29:33.104Z,11.25
2022-12-27T07:30:33.117Z,11.25
2022-12-27T07:31:33.205Z,11.25
2022-12-27T07:32:33.074Z,11.25
2022-12-27T07:33:33.056Z,11.25
2022-12-27T07:34:38.072Z,11.25
2022-12-27T07:35:33.043Z,16.88
2022-12-27T07:36:33.079Z,16.88
2022-12-27T07:37:33.014Z,16.88
2022-12-27T07:38:33.004Z,16.88
2022-12-27T07:39:33.010Z,16.88
2022-12-27T07:40:33.091Z,16.88
2022-12-27T07:41:32.967Z,22.50
2022-12-27T07:42:32.969Z,22.50
2022-12-27T07:43:32.952Z,22.50
2022-12-27T07:44:32.941Z,22.50
2022-12-27T07:45:38.025Z,22.50
2022-12-27T07:46:32.912Z,22.50
2022-12-27T07:47:33.070Z,22.50
2022-12-27T07:48:32.907Z,28.12
2022-12-27T07:49:32.891Z,28.12
2022-12-27T07:50:32.869Z,28.12
2022-12-27T07:51:32.903Z,28.12
2022-12-27T07:52:32.866Z,33.75
2022-12-27T07:53:32.843Z,33.75
2022-12-27T07:54:32.826Z,33.75
2022-12-27T07:55:32.832Z,33.75
2022-12-27T07:56:37.842Z,33.75
2022-12-27T07:57:32.806Z,33.75
2022-12-27T07:58:32.783Z,33.75
2022-12-27T07:59:32.783Z,39.38
2022-12-27T08:00:32.811Z,39.38
2022-12-27T08:01:32.858Z,39.38
2022-12-27T08:02:32.880Z,39.38
2022-12-27T08:03:32.745Z,39.38
2022-12-27T08:04:32.739Z,45.00
2022-12-27T08:05:32.713Z,45.00
2022-12-27T08:06:32.741Z,45.00
2022-12-27T08:07:38.714Z,45.00
2022-12-27T08:08:32.707Z,45.00
2022-12-27T08:09:32.767Z,45.00
2022-12-27T08:10:32.649Z,50.62
2022-12-27T08:11:32.689Z,50.62
2022-12-27T08:12:32.651Z,50.62
2022-12-27T08:13:32.619Z,50.62
2022-12-27T08:14:32.602Z,50.62
2022-12-27T08:15:32.591Z,50.62
2022-12-27T08:16:32.629Z,50.62
2022-12-27T08:17:32.576Z,50.62
2022-12-27T08:18:37.593Z,50.62
2022-12-27T08:19:32.552Z,50.62
2022-12-27T08:20:32.534Z,50.62
2022-12-27T08:21:32.521Z,56.25
2022-12-27T08:22:32.516Z,56.25
2022-12-27T08:23:32.527Z,50.62
2022-12-27T08:24:32.513Z,56.25
2022-12-27T08:25:32.479Z,56.25
2022-12-27T08:26:32.496Z,56.25
2022-12-27T08:27:32.483Z,56.25
2022-12-27T08:28:32.460Z,56.25
2022-12-27T08:29:37.554Z,56.25
2022-12-27T08:30:32.498Z,61.88
2022-12-27T08:31:32.419Z,61.88
2022-12-27T08:32:32.410Z,61.88
2022-12-27T08:33:32.408Z,61.88
2022-12-27T08:34:32.382Z,61.88
2022-12-27T08:35:52.164Z,56.25
2022-12-27T08:37:33.361Z,61.88
2022-12-27T08:38:33.346Z,61.88
2022-12-27T08:39:32.335Z,67.50
2022-12-27T08:40:37.342Z,67.50
2022-12-27T08:41:32.299Z,67.50
2022-12-27T08:42:32.290Z,67.50
2022-12-27T08:43:32.316Z,73.12
2022-12-27T08:44:32.288Z,73.12
2022-12-27T08:45:32.261Z,73.12
2022-12-27T08:46:32.324Z,73.12
2022-12-27T08:47:32.250Z,73.12
2022-12-27T08:48:32.321Z,73.12
2022-12-27T08:49:32.216Z,73.12
2022-12-27T08:50:32.211Z,73.12
2022-12-27T08:51:41.052Z,73.12
2022-12-27T08:52:32.188Z,73.12
2022-12-27T08:53:32.179Z,73.12
2022-12-27T08:54:32.162Z,73.12
2022-12-27T08:55:32.166Z,73.12
2022-12-27T08:56:32.152Z,78.75
2022-12-27T08:57:32.122Z,73.12
2022-12-27T08:58:32.148Z,78.75
2022-12-27T08:59:32.140Z,78.75
2022-12-27T09:00:32.116Z,78.75
2022-12-27T09:01:32.178Z,78.75
2022-12-27T09:02:37.338Z,84.38
2022-12-27T09:03:33.178Z,95.62
2022-12-27T09:04:32.071Z,101.25
2022-12-27T09:05:36.617Z,112.50
2022-12-27T09:06:33.033Z,118.12
2022-12-27T09:07:32.057Z,129.38
2022-12-27T09:08:32.027Z,151.88
2022-12-27T09:09:32.004Z,185.62
2022-12-27T09:10:32.005Z,202.50
2022-12-27T09:11:31.970Z,213.75
2022-12-27T09:12:32.020Z,219.38
2022-12-27T09:13:37.009Z,213.75
2022-12-27T09:14:31.939Z,225.00
2022-12-27T09:15:32.025Z,225.00
2022-12-27T09:16:31.967Z,230.62
2022-12-27T09:17:31.907Z,225.00
2022-12-27T09:18:31.900Z,225.00
2022-12-27T09:19:31.895Z,230.62
2022-12-27T09:20:31.880Z,241.88
2022-12-27T09:21:31.957Z,241.88
2022-12-27T09:22:32.925Z,236.25
2022-12-27T09:23:31.853Z,230.62
2022-12-27T09:24:36.868Z,236.25
2022-12-27T09:25:31.893Z,236.25
2022-12-27T09:26:31.810Z,236.25
2022-12-27T09:27:31.819Z,230.62
2022-12-27T09:28:31.782Z,236.25
2022-12-27T09:29:31.779Z,225.00
2022-12-27T09:30:31.769Z,213.75
2022-12-27T09:31:31.830Z,202.50
2022-12-27T09:32:31.743Z,196.88
2022-12-27T09:33:31.763Z,208.12
2022-12-27T09:34:31.810Z,208.12
2022-12-27T09:35:38.655Z,208.12
2022-12-27T09:36:31.702Z,208.12
2022-12-27T09:37:31.688Z,213.75
2022-12-27T09:38:31.699Z,225.00
2022-12-27T09:39:31.672Z,225.00
2022-12-27T09:40:31.650Z,241.88
2022-12-27T09:42:26.050Z,230.62
2022-12-27T09:43:01.918Z,225.00
2022-12-27T09:43:32.619Z,208.12
2022-12-27T09:44:31.618Z,213.75
2022-12-27T09:45:31.597Z,213.75
2022-12-27T09:46:36.675Z,225.00
2022-12-27T09:47:31.572Z,230.62
2022-12-27T09:48:33.401Z,208.12
2022-12-27T09:49:32.554Z,185.62
2022-12-27T09:50:31.566Z,163.12
2022-12-27T09:51:31.532Z,151.88
2022-12-27T09:52:31.511Z,151.88
2022-12-27T09:53:31.504Z,157.50
2022-12-27T09:54:31.507Z,163.12
2022-12-27T09:55:31.499Z,163.12
2022-12-27T09:56:47.263Z,157.50
2022-12-27T09:57:37.512Z,151.88
2022-12-27T09:58:31.444Z,151.88
2022-12-27T09:59:31.450Z,157.50
2022-12-27T10:00:35.028Z,163.12
2022-12-27T10:01:31.599Z,174.38
2022-12-27T10:02:31.678Z,191.25
2022-12-27T10:03:31.395Z,213.75
2022-12-27T10:05:00.823Z,213.75
2022-12-27T10:05:32.497Z,196.88
2022-12-27T10:06:31.366Z,196.88
2022-12-27T10:07:31.375Z,191.25
2022-12-27T10:08:36.370Z,191.25
2022-12-27T10:09:31.353Z,185.62
2022-12-27T10:10:31.325Z,180.00
2022-12-27T10:11:31.317Z,180.00
2022-12-27T10:12:32.104Z,180.00
2022-12-27T10:13:31.321Z,174.38
2022-12-27T10:14:31.292Z,180.00
2022-12-27T10:15:31.268Z,191.25
2022-12-27T10:16:31.341Z,191.25
2022-12-27T10:17:31.241Z,191.25
2022-12-27T10:18:31.250Z,202.50
2022-12-27T10:19:36.266Z,202.50
2022-12-27T10:20:31.209Z,202.50
2022-12-27T10:21:31.206Z,185.62
2022-12-27T10:22:31.187Z,196.88
2022-12-27T10:23:31.171Z,185.62
2022-12-27T10:24:31.160Z,202.50
2022-12-27T10:25:31.194Z,202.50
2022-12-27T10:26:31.145Z,196.88
2022-12-27T10:27:31.150Z,191.25
2022-12-27T10:28:31.117Z,191.25
2022-12-27T10:29:31.111Z,191.25
2022-12-27T10:30:36.140Z,208.12
2022-12-27T10:31:31.136Z,196.88
2022-12-27T10:32:31.130Z,196.88
2022-12-27T10:33:31.065Z,208.12
2022-12-27T10:34:31.110Z,213.75
2022-12-27T10:35:31.056Z,208.12
2022-12-27T10:36:31.040Z,202.50
2022-12-27T10:37:31.042Z,202.50
2022-12-27T10:38:31.005Z,202.50
2022-12-27T10:39:31.016Z,191.25
2022-12-27T10:40:34.305Z,185.62
2022-12-27T10:41:35.993Z,168.75
2022-12-27T10:42:30.960Z,163.12
2022-12-27T10:43:30.978Z,157.50
2022-12-27T10:44:30.945Z,151.88
2022-12-27T10:45:30.933Z,129.38
2022-12-27T10:46:33.501Z,135.00
2022-12-27T10:47:30.905Z,129.38
2022-12-27T10:48:47.441Z,129.38
2022-12-27T10:49:31.888Z,129.38
2022-12-27T10:50:30.899Z,129.38
2022-12-27T10:51:30.857Z,135.00
2022-12-27T10:52:35.872Z,140.62
2022-12-27T10:53:30.834Z,146.25
2022-12-27T10:54:30.841Z,146.25
2022-12-27T10:55:30.835Z,146.25
2022-12-27T10:56:30.803Z,151.88
2022-12-27T10:57:30.800Z,180.00
2022-12-27T10:58:30.781Z,191.25
2022-12-27T10:59:30.766Z,191.25
2022-12-27T11:00:30.816Z,185.62
2022-12-27T11:01:31.036Z,180.00
2022-12-27T11:02:30.878Z,180.00
2022-12-27T11:03:35.751Z,196.88
2022-12-27T11:04:30.757Z,185.62
2022-12-27T11:05:30.714Z,180.00
2022-12-27T11:06:30.719Z,174.38
2022-12-27T11:07:30.685Z,185.62
2022-12-27T11:08:30.668Z,185.62
2022-12-27T11:09:30.664Z,191.25
2022-12-27T11:10:30.654Z,191.25
2022-12-27T11:11:30.639Z,196.88
2022-12-27T11:12:30.636Z,191.25
2022-12-27T11:13:30.620Z,180.00
2022-12-27T11:14:35.674Z,168.75
2022-12-27T11:15:30.609Z,146.25
2022-12-27T11:16:30.624Z,157.50
2022-12-27T11:17:30.565Z,168.75
2022-12-27T11:18:30.554Z,168.75
2022-12-27T11:19:30.548Z,174.38
2022-12-27T11:20:30.535Z,174.38
2022-12-27T11:21:30.533Z,174.38
2022-12-27T11:22:30.527Z,185.62
2022-12-27T11:23:30.497Z,185.62
2022-12-27T11:24:30.491Z,180.00
2022-12-27T11:25:35.532Z,174.38
2022-12-27T11:26:30.462Z,157.50
2022-12-27T11:27:30.456Z,146.25
2022-12-27T11:28:30.441Z,151.88
2022-12-27T11:29:30.434Z,185.62
2022-12-27T11:30:30.417Z,258.75
2022-12-27T11:31:30.496Z,298.12
2022-12-27T11:32:30.411Z,315.00
2022-12-27T11:33:30.387Z,393.75
2022-12-27T11:34:30.377Z,405.00
2022-12-27T11:35:30.364Z,382.50
2022-12-27T11:36:35.402Z,416.25
2022-12-27T11:37:31.350Z,506.25
2022-12-27T11:38:30.372Z,568.12
2022-12-27T11:39:30.320Z,607.50
2022-12-27T11:40:30.315Z,630.00
2022-12-27T11:41:30.307Z,601.88
2022-12-27T11:42:30.314Z,596.25
2022-12-27T11:43:30.283Z,489.38
2022-12-27T11:44:30.280Z,635.62
2022-12-27T11:45:30.262Z,838.12
2022-12-27T11:46:30.286Z,393.75
2022-12-27T11:47:35.258Z,219.38
2022-12-27T11:48:30.218Z,123.75
2022-12-27T11:49:30.211Z,270.00
2022-12-27T11:50:30.193Z,759.38
2022-12-27T11:51:30.201Z,669.38
2022-12-27T11:52:30.170Z,607.50
2022-12-27T11:53:30.157Z,590.62
2022-12-27T11:54:30.164Z,416.25
2022-12-27T11:55:30.143Z,118.12
2022-12-27T11:56:30.136Z,123.75
2022-12-27T11:57:30.118Z,129.38
2022-12-27T11:58:35.127Z,135.00
2022-12-27T11:59:30.101Z,157.50
2022-12-27T12:00:30.081Z,174.38
2022-12-27T12:01:30.118Z,174.38
2022-12-27T12:02:30.127Z,151.88
2022-12-27T12:03:30.098Z,129.38
2022-12-27T12:04:30.044Z,129.38
2022-12-27T12:05:30.038Z,135.00
2022-12-27T12:06:34.465Z,129.38
2022-12-27T12:07:30.013Z,118.12
2022-12-27T12:08:29.996Z,118.12
2022-12-27T12:09:35.024Z,118.12
2022-12-27T12:10:29.975Z,129.38
2022-12-27T12:11:30.953Z,146.25
2022-12-27T12:12:29.995Z,151.88
2022-12-27T12:13:29.990Z,174.38
2022-12-27T12:14:29.929Z,174.38
2022-12-27T12:15:29.910Z,163.12
2022-12-27T12:16:29.981Z,151.88
2022-12-27T12:17:35.720Z,129.38
2022-12-27T12:18:30.875Z,112.50
2022-12-27T12:19:29.870Z,112.50
2022-12-27T12:20:34.932Z,129.38
2022-12-27T12:21:29.852Z,151.88
2022-12-27T12:22:29.842Z,180.00
2022-12-27T12:23:29.823Z,185.62
2022-12-27T12:24:29.827Z,157.50
2022-12-27T12:25:29.827Z,106.88
2022-12-27T12:26:29.790Z,95.62
2022-12-27T12:27:29.794Z,90.00
2022-12-27T12:28:56.863Z,84.38
2022-12-27T12:29:30.758Z,84.38
2022-12-27T12:30:29.748Z,84.38
2022-12-27T12:31:34.805Z,90.00
2022-12-27T12:32:29.770Z,101.25
2022-12-27T12:33:29.736Z,101.25
2022-12-27T12:34:29.699Z,95.62
2022-12-27T12:35:29.690Z,101.25
2022-12-27T12:36:29.679Z,95.62
2022-12-27T12:37:29.683Z,90.00
2022-12-27T12:38:29.654Z,78.75
2022-12-27T12:39:29.647Z,78.75
2022-12-27T12:40:29.637Z,73.12
2022-12-27T12:41:29.643Z,78.75
2022-12-27T12:42:34.646Z,73.12
2022-12-27T12:43:29.610Z,73.12
2022-12-27T12:44:29.604Z,90.00
2022-12-27T12:45:29.579Z,90.00
2022-12-27T12:46:29.563Z,73.12
2022-12-27T12:47:29.627Z,67.50
2022-12-27T12:48:29.541Z,78.75
2022-12-27T12:49:29.536Z,90.00
2022-12-27T12:50:29.525Z,95.62
2022-12-27T12:51:29.524Z,78.75
2022-12-27T12:52:30.513Z,78.75
2022-12-27T12:53:34.513Z,84.38
2022-12-27T12:54:29.478Z,84.38
2022-12-27T12:55:34.937Z,84.38
2022-12-27T12:56:30.454Z,78.75
2022-12-27T12:57:29.538Z,67.50
2022-12-27T12:58:29.435Z,67.50
2022-12-27T12:59:29.426Z,67.50
2022-12-27T13:00:29.414Z,73.12
2022-12-27T13:01:29.541Z,73.12
2022-12-27T13:02:29.603Z,73.12
2022-12-27T13:03:29.533Z,73.12
2022-12-27T13:04:34.385Z,78.75
2022-12-27T13:05:29.366Z,78.75
2022-12-27T13:06:30.338Z,78.75
2022-12-27T13:07:30.386Z,78.75
2022-12-27T13:08:29.322Z,78.75
2022-12-27T13:09:29.316Z,84.38
2022-12-27T13:10:29.306Z,84.38
2022-12-27T13:11:29.291Z,84.38
2022-12-27T13:12:29.286Z,95.62
2022-12-27T13:13:29.286Z,95.62
2022-12-27T13:14:29.286Z,84.38
2022-12-27T13:15:34.272Z,73.12
2022-12-27T13:16:29.261Z,73.12
2022-12-27T13:17:29.225Z,73.12
2022-12-27T13:18:30.796Z,67.50
2022-12-27T13:19:29.198Z,67.50
2022-12-27T13:20:29.183Z,67.50
2022-12-27T13:21:29.175Z,67.50
2022-12-27T13:22:29.183Z,67.50
2022-12-27T13:23:29.171Z,67.50
2022-12-27T13:24:30.052Z,67.50
2022-12-27T13:25:29.139Z,73.12
2022-12-27T13:26:34.170Z,78.75
2022-12-27T13:27:29.115Z,73.12
2022-12-27T13:28:29.120Z,78.75
2022-12-27T13:29:29.115Z,84.38
2022-12-27T13:30:29.203Z,84.38
2022-12-27T13:31:29.068Z,78.75
2022-12-27T13:32:29.056Z,78.75
2022-12-27T13:33:29.056Z,78.75
2022-12-27T13:34:29.079Z,78.75
2022-12-27T13:35:29.024Z,78.75
2022-12-27T13:36:29.010Z,78.75
2022-12-27T13:37:34.025Z,78.75
2022-12-27T13:38:29.009Z,78.75
2022-12-27T13:39:28.985Z,78.75
2022-12-27T13:40:28.965Z,73.12
2022-12-27T13:41:30.988Z,73.12
2022-12-27T13:42:28.946Z,73.12
2022-12-27T13:43:29.940Z,73.12
2022-12-27T13:44:28.920Z,73.12
2022-12-27T13:45:28.927Z,73.12
2022-12-27T13:46:28.932Z,67.50
2022-12-27T13:47:28.888Z,67.50
2022-12-27T13:48:33.906Z,67.50
2022-12-27T13:49:28.863Z,67.50
2022-12-27T13:50:29.850Z,67.50
2022-12-27T13:51:28.841Z,67.50
2022-12-27T13:52:28.841Z,67.50
2022-12-27T13:53:28.827Z,67.50
2022-12-27T13:54:28.822Z,67.50
2022-12-27T13:55:28.803Z,67.50
2022-12-27T13:56:53.610Z,67.50
2022-12-27T13:57:29.824Z,67.50
2022-12-27T13:58:28.771Z,67.50
2022-12-27T13:59:33.785Z,67.50
2022-12-27T14:00:28.742Z,67.50
2022-12-27T14:01:28.900Z,67.50
2022-12-27T14:02:28.997Z,67.50
2022-12-27T14:03:28.773Z,67.50
2022-12-27T14:04:28.711Z,67.50
2022-12-27T14:05:28.686Z,67.50
2022-12-27T14:06:28.674Z,67.50
2022-12-27T14:07:28.703Z,61.88
2022-12-27T14:08:28.660Z,61.88
2022-12-27T14:09:28.660Z,61.88
2022-12-27T14:10:33.669Z,61.88
2022-12-27T14:11:28.621Z,61.88
2022-12-27T14:12:28.613Z,61.88
2022-12-27T14:13:28.610Z,61.88
2022-12-27T14:14:28.596Z,67.50
2022-12-27T14:15:28.648Z,73.12
2022-12-27T14:16:28.562Z,67.50
2022-12-27T14:17:28.588Z,61.88
2022-12-27T14:18:28.551Z,61.88
2022-12-27T14:19:28.540Z,61.88
2022-12-27T14:20:28.520Z,61.88
2022-12-27T14:21:33.545Z,56.25
2022-12-27T14:22:28.497Z,56.25
2022-12-27T14:23:28.500Z,56.25
2022-12-27T14:24:28.507Z,56.25
2022-12-27T14:25:28.579Z,56.25
2022-12-27T14:26:28.460Z,50.62
2022-12-27T14:27:28.438Z,50.62
2022-12-27T14:28:28.429Z,50.62
2022-12-27T14:29:28.428Z,50.62
2022-12-27T14:30:28.405Z,50.62
2022-12-27T14:31:28.471Z,50.62
2022-12-27T14:32:33.440Z,45.00
2022-12-27T14:33:28.390Z,45.00
2022-12-27T14:34:28.371Z,39.38
2022-12-27T14:35:28.351Z,45.00
2022-12-27T14:36:28.357Z,39.38
2022-12-27T14:37:28.332Z,39.38
2022-12-27T14:38:28.327Z,33.75
2022-12-27T14:39:29.319Z,28.12
2022-12-27T14:40:34.394Z,22.50
2022-12-27T14:41:29.314Z,22.50
2022-12-27T14:42:28.281Z,22.50
2022-12-27T14:43:33.299Z,22.50
2022-12-27T14:44:28.275Z,22.50
2022-12-27T14:45:28.240Z,22.50
2022-12-27T14:46:28.297Z,22.50
2022-12-27T14:47:28.219Z,16.88
2022-12-27T14:48:28.229Z,16.88
2022-12-27T14:49:28.206Z,16.88
2022-12-27T14:50:28.186Z,22.50
2022-12-27T14:52:29.165Z,22.50
2022-12-27T14:53:28.150Z,22.50
2022-12-27T14:54:33.170Z,22.50
2022-12-27T14:55:28.126Z,22.50
2022-12-27T14:56:28.126Z,22.50
2022-12-27T14:57:33.336Z,16.88
2022-12-27T14:58:29.099Z,16.88
2022-12-27T14:59:28.109Z,16.88
2022-12-27T15:00:28.108Z,16.88
2022-12-27T15:01:28.214Z,16.88
2022-12-27T15:02:28.287Z,16.88
2022-12-27T15:03:35.783Z,16.88
2022-12-27T15:04:29.073Z,16.88
2022-12-27T15:05:33.065Z,11.25
2022-12-27T15:06:28.009Z,11.25
2022-12-27T15:07:27.996Z,11.25
2022-12-27T15:08:27.987Z,11.25
2022-12-27T15:09:27.985Z,11.25
2022-12-27T15:10:33.409Z,11.25
2022-12-27T15:11:28.950Z,11.25
2022-12-27T15:12:27.948Z,11.25
2022-12-27T15:13:27.936Z,11.25
2022-12-27T15:14:27.918Z,11.25
2022-12-27T15:15:27.929Z,11.25
2022-12-27T15:16:32.939Z,11.25
2022-12-27T15:17:27.892Z,11.25
2022-12-27T15:18:27.898Z,11.25
2022-12-27T15:19:27.882Z,5.62
2022-12-27T15:20:27.912Z,5.62
2022-12-27T15:21:27.840Z,5.62
2022-12-27T15:22:27.837Z,5.62
2022-12-27T15:23:27.883Z,5.62
2022-12-27T15:24:27.808Z,5.62
2022-12-27T15:25:28.093Z,5.62
2022-12-27T15:26:27.926Z,5.62
2022-12-27T15:27:32.836Z,5.62
2022-12-27T15:28:27.764Z,5.62
2022-12-27T15:29:27.765Z,5.62
2022-12-27T15:30:27.775Z,5.62
2022-12-27T15:31:27.783Z,5.62
2022-12-27T15:32:27.799Z,0.00
2022-12-27T15:33:27.709Z,0.00
2022-12-27T15:34:27.704Z,0.00
2022-12-27T15:35:27.699Z,0.00
2022-12-27T15:36:27.754Z,0.00
2022-12-27T15:37:27.679Z,0.00
2022-12-27T15:38:32.670Z,0.00
2022-12-27T15:39:27.647Z,0.00
2022-12-27T15:40:27.682Z,0.00
2022-12-27T15:41:27.666Z,0.00
2022-12-27T15:42:31.603Z,0.00
2022-12-27T15:43:28.592Z,0.00
2022-12-27T15:44:27.582Z,0.00
2022-12-27T15:45:27.578Z,0.00
2022-12-27T15:46:34.077Z,0.00
2022-12-27T15:47:28.546Z,0.00
2022-12-27T15:48:27.541Z,0.00
2022-12-27T15:49:32.566Z,0.00
2022-12-27T15:50:27.516Z,0.00
2022-12-27T15:51:27.512Z,0.00
2022-12-27T15:52:27.518Z,0.00
2022-12-27T15:53:27.488Z,0.00
2022-12-27T15:54:27.506Z,0.00
2022-12-27T15:55:27.462Z,0.00
2022-12-27T15:56:27.472Z,0.00
2022-12-27T15:57:27.443Z,0.00
2022-12-27T15:58:27.434Z,0.00
2022-12-27T15:59:27.417Z,0.00
2022-12-27T16:00:34.230Z,0.00
2022-12-27T16:01:27.693Z,0.00
2022-12-27T16:02:27.575Z,0.00
2022-12-27T16:03:27.398Z,0.00
2022-12-27T16:04:27.399Z,0.00
2022-12-27T16:05:27.354Z,0.00
2022-12-27T16:06:27.347Z,0.00
2022-12-27T16:07:27.326Z,0.00
2022-12-27T16:08:27.345Z,0.00
2022-12-27T16:09:27.305Z,0.00
2022-12-27T16:10:27.292Z,0.00
2022-12-27T16:11:32.310Z,0.00
2022-12-27T16:12:27.269Z,0.00
2022-12-27T16:13:27.267Z,0.00
2022-12-27T16:14:27.250Z,0.00
2022-12-27T16:15:27.250Z,0.00
2022-12-27T16:16:27.282Z,0.00
2022-12-27T16:17:27.212Z,0.00
2022-12-27T16:18:27.201Z,0.00
2022-12-27T16:19:27.196Z,0.00
2022-12-27T16:20:27.186Z,0.00
2022-12-27T16:21:27.187Z,0.00
2022-12-27T16:22:32.194Z,0.00
2022-12-27T16:23:27.144Z,0.00
2022-12-27T16:24:27.183Z,0.00
2022-12-27T16:25:30.943Z,0.00
2022-12-27T16:26:27.112Z,0.00
2022-12-27T16:27:27.117Z,0.00
2022-12-27T16:28:27.091Z,0.00
2022-12-27T16:29:27.077Z,0.00
2022-12-27T16:30:27.705Z,0.00
2022-12-27T16:31:27.075Z,0.00
2022-12-27T16:32:27.057Z,0.00
2022-12-27T16:33:32.058Z,0.00
2022-12-27T16:34:27.025Z,0.00
2022-12-27T16:35:27.011Z,0.00
2022-12-27T16:36:27.005Z,0.00
2022-12-27T16:37:27.020Z,0.00
2022-12-27T16:38:26.980Z,0.00
2022-12-27T16:39:26.977Z,0.00
2022-12-27T16:40:26.991Z,0.00
2022-12-27T16:41:26.958Z,0.00
2022-12-27T16:42:26.944Z,0.00
2022-12-27T16:43:26.925Z,0.00
2022-12-27T16:44:38.006Z,0.00
2022-12-27T16:45:27.908Z,0.00
2022-12-27T16:46:26.942Z,0.00
2022-12-27T16:47:26.928Z,0.00
2022-12-27T16:48:26.890Z,0.00
2022-12-27T16:49:26.849Z,0.00
2022-12-27T16:50:26.866Z,0.00
2022-12-27T16:51:26.829Z,0.00
2022-12-27T16:52:26.836Z,0.00
2022-12-27T16:53:26.811Z,0.00
2022-12-27T16:54:26.809Z,0.00
2022-12-27T16:55:31.827Z,0.00
2022-12-27T16:56:26.777Z,0.00
2022-12-27T16:57:26.795Z,0.00
2022-12-27T16:58:26.768Z,0.00
2022-12-27T16:59:26.745Z,0.00
2022-12-27T17:00:26.751Z,0.00
2022-12-27T17:01:26.928Z,0.00
2022-12-27T17:02:26.802Z,0.00
2022-12-27T17:03:26.715Z,0.00
2022-12-27T17:04:26.704Z,0.00
2022-12-27T17:05:26.683Z,0.00
2022-12-27T17:06:33.709Z,0.00
2022-12-27T17:07:26.651Z,0.00
2022-12-27T17:08:26.661Z,0.00
2022-12-27T17:09:29.847Z,0.00
2022-12-27T17:10:27.680Z,0.00
2022-12-27T17:11:26.652Z,0.00
2022-12-27T17:12:26.602Z,0.00
2022-12-27T17:13:26.741Z,0.00
2022-12-27T17:14:26.581Z,0.00
2022-12-27T17:15:26.570Z,0.00
2022-12-27T17:16:26.671Z,0.00
2022-12-27T17:17:31.560Z,0.00
2022-12-27T17:18:26.544Z,0.00
2022-12-27T17:19:26.526Z,0.00
2022-12-27T17:20:26.517Z,0.00
2022-12-27T17:21:30.116Z,0.00
2022-12-27T17:22:33.945Z,0.00
2022-12-27T17:23:27.488Z,0.00
2022-12-27T17:24:26.467Z,0.00
2022-12-27T17:25:26.464Z,0.00
2022-12-27T17:26:26.440Z,0.00
2022-12-27T17:27:26.458Z,0.00
2022-12-27T17:28:31.569Z,0.00
2022-12-27T17:29:29.827Z,0.00
2022-12-27T17:30:26.400Z,0.00
2022-12-27T17:31:26.419Z,0.00
2022-12-27T17:32:26.371Z,0.00
2022-12-27T17:33:26.380Z,0.00
2022-12-27T17:34:26.351Z,0.00
2022-12-27T17:35:28.999Z,0.00
2022-12-27T17:36:26.326Z,0.00
2022-12-27T17:37:26.421Z,0.00
2022-12-27T17:38:26.316Z,0.00
2022-12-27T17:39:31.317Z,0.00
2022-12-27T17:40:26.282Z,0.00
2022-12-27T17:41:26.277Z,0.00
2022-12-27T17:42:27.267Z,0.00
2022-12-27T17:43:26.286Z,0.00
2022-12-27T17:44:26.243Z,0.00
2022-12-27T17:45:26.256Z,0.00
2022-12-27T17:46:26.234Z,0.00
2022-12-27T17:47:26.208Z,0.00
2022-12-27T17:48:26.213Z,0.00
2022-12-27T17:49:26.197Z,0.00
2022-12-27T17:50:31.199Z,0.00
2022-12-27T17:51:26.172Z,0.00
2022-12-27T17:52:26.148Z,0.00
2022-12-27T17:53:26.150Z,0.00
2022-12-27T17:54:26.207Z,0.00
2022-12-27T17:55:26.118Z,0.00
2022-12-27T17:56:26.112Z,0.00
2022-12-27T17:57:26.104Z,0.00
2022-12-27T17:58:26.090Z,0.00